sensor_id;sensor_type;location;lat;lon;timestamp;P1;P2;P0
77411;PMS7003;66484;49.968;19.140;2023-04-24T00:02:09;15.67;14.67;11.00
77411;PMS7003;66484;49.968;19.140;2023-04-24T00:04:37;24.00;19.33;13.00
77411;PMS7003;66484;49.968;19.140;2023-04-24T00:07:08;22.33;20.67;13.33
77411;PMS7003;66484;49.968;19.140;2023-04-24T00:09:35;17.00;15.33;13.00
77411;PMS7003;66484;49.968;19.140;2023-04-24T00:12:03;17.67;14.67;12.67
77411;PMS7003;66484;49.968;19.140;2023-04-24T00:14:31;17.00;17.00;13.00
77411;PMS7003;66484;49.968;19.140;2023-04-24T00:16:58;17.00;17.00;12.00
77411;PMS7003;66484;49.968;19.140;2023-04-24T00:19:25;18.67;17.33;14.00
77411;PMS7003;66484;49.968;19.140;2023-04-24T00:21:53;21.00;17.33;13.67
77411;PMS7003;66484;49.968;19.140;2023-04-24T00:24:20;20.67;18.00;12.33
77411;PMS7003;66484;49.968;19.140;2023-04-24T00:26:48;15.00;15.00;12.00
77411;PMS7003;66484;49.968;19.140;2023-04-24T00:29:15;21.33;17.00;13.33
77411;PMS7003;66484;49.968;19.140;2023-04-24T00:31:42;18.67;16.00;13.00
77411;PMS7003;66484;49.968;19.140;2023-04-24T00:34:09;20.67;18.00;14.00
77411;PMS7003;66484;49.968;19.140;2023-04-24T00:36:38;15.33;15.33;12.00
77411;PMS7003;66484;49.968;19.140;2023-04-24T00:39:05;20.00;16.00;14.00
77411;PMS7003;66484;49.968;19.140;2023-04-24T00:41:35;15.00;12.33;10.33
77411;PMS7003;66484;49.968;19.140;2023-04-24T00:44:02;18.00;15.00;12.00
77411;PMS7003;66484;49.968;19.140;2023-04-24T00:46:29;21.33;20.00;14.67
77411;PMS7003;66484;49.968;19.140;2023-04-24T00:48:57;13.00;12.00;11.00
77411;PMS7003;66484;49.968;19.140;2023-04-24T00:51:25;15.00;14.00;12.00
77411;PMS7003;66484;49.968;19.140;2023-04-24T00:53:53;16.67;15.33;12.00
77411;PMS7003;66484;49.968;19.140;2023-04-24T00:56:21;19.33;15.67;11.33
77411;PMS7003;66484;49.968;19.140;2023-04-24T00:58:48;17.67;16.00;11.33
77411;PMS7003;66484;49.968;19.140;2023-04-24T01:01:16;15.33;15.33;12.67
77411;PMS7003;66484;49.968;19.140;2023-04-24T01:03:44;14.67;13.33;10.67
77411;PMS7003;66484;49.968;19.140;2023-04-24T01:06:12;13.67;13.67;10.33
77411;PMS7003;66484;49.968;19.140;2023-04-24T01:08:40;14.33;14.33;12.00
77411;PMS7003;66484;49.968;19.140;2023-04-24T01:11:08;11.33;11.33;10.67
77411;PMS7003;66484;49.968;19.140;2023-04-24T01:13:35;12.00;11.67;9.67
77411;PMS7003;66484;49.968;19.140;2023-04-24T01:16:02;14.00;14.00;11.00
77411;PMS7003;66484;49.968;19.140;2023-04-24T01:18:29;12.33;12.33;11.00
77411;PMS7003;66484;49.968;19.140;2023-04-24T01:20:57;15.33;11.67;10.00
77411;PMS7003;66484;49.968;19.140;2023-04-24T01:23:25;13.00;12.67;10.33
77411;PMS7003;66484;49.968;19.140;2023-04-24T01:25:53;13.00;13.00;11.00
77411;PMS7003;66484;49.968;19.140;2023-04-24T01:28:20;14.67;12.67;11.00
77411;PMS7003;66484;49.968;19.140;2023-04-24T01:30:48;14.00;13.00;11.00
77411;PMS7003;66484;49.968;19.140;2023-04-24T01:33:15;15.67;15.00;12.33
77411;PMS7003;66484;49.968;19.140;2023-04-24T01:35:43;15.33;14.33;12.00
77411;PMS7003;66484;49.968;19.140;2023-04-24T01:38:10;12.33;11.67;10.33
77411;PMS7003;66484;49.968;19.140;2023-04-24T01:40:37;18.33;16.33;12.67
77411;PMS7003;66484;49.968;19.140;2023-04-24T01:43:05;18.33;18.33;12.67
77411;PMS7003;66484;49.968;19.140;2023-04-24T01:45:32;20.00;15.00;13.33
77411;PMS7003;66484;49.968;19.140;2023-04-24T01:48:00;14.67;13.67;11.33
77411;PMS7003;66484;49.968;19.140;2023-04-24T01:50:27;13.33;13.33;11.00
77411;PMS7003;66484;49.968;19.140;2023-04-24T01:52:54;4.67;4.67;2.67
77411;PMS7003;66484;49.968;19.140;2023-04-24T01:55:22;16.00;15.00;11.25
77411;PMS7003;66484;49.968;19.140;2023-04-24T01:57:49;17.25;14.75;12.00
77411;PMS7003;66484;49.968;19.140;2023-04-24T02:00:17;15.00;13.50;11.75
77411;PMS7003;66484;49.968;19.140;2023-04-24T02:02:44;11.75;11.75;10.25
77411;PMS7003;66484;49.968;19.140;2023-04-24T02:05:14;18.00;14.75;11.00
77411;PMS7003;66484;49.968;19.140;2023-04-24T02:07:41;14.25;12.50;10.50
77411;PMS7003;66484;49.968;19.140;2023-04-24T02:10:09;13.50;13.25;11.00
77411;PMS7003;66484;49.968;19.140;2023-04-24T02:12:36;13.50;10.50;9.50
77411;PMS7003;66484;49.968;19.140;2023-04-24T02:15:04;13.50;12.00;9.75
77411;PMS7003;66484;49.968;19.140;2023-04-24T02:17:31;21.25;15.00;12.00
77411;PMS7003;66484;49.968;19.140;2023-04-24T02:19:59;14.75;13.25;10.75
77411;PMS7003;66484;49.968;19.140;2023-04-24T02:22:26;13.50;12.50;11.25
77411;PMS7003;66484;49.968;19.140;2023-04-24T02:24:53;17.25;14.50;11.00
77411;PMS7003;66484;49.968;19.140;2023-04-24T02:27:20;20.50;14.00;11.75
77411;PMS7003;66484;49.968;19.140;2023-04-24T02:29:48;17.25;17.00;12.25
77411;PMS7003;66484;49.968;19.140;2023-04-24T02:32:15;16.25;16.25;13.00
77411;PMS7003;66484;49.968;19.140;2023-04-24T02:34:42;14.00;14.00;11.75
77411;PMS7003;66484;49.968;19.140;2023-04-24T02:37:09;14.00;14.00;11.25
77411;PMS7003;66484;49.968;19.140;2023-04-24T02:39:37;11.00;11.00;9.00
77411;PMS7003;66484;49.968;19.140;2023-04-24T02:42:04;11.75;11.00;9.00
77411;PMS7003;66484;49.968;19.140;2023-04-24T02:44:32;11.00;11.00;9.00
77411;PMS7003;66484;49.968;19.140;2023-04-24T02:46:59;5.75;3.75;2.75
77411;PMS7003;66484;49.968;19.140;2023-04-24T02:49:26;12.75;10.75;9.00
77411;PMS7003;66484;49.968;19.140;2023-04-24T02:51:53;9.00;9.00;8.33
77411;PMS7003;66484;49.968;19.140;2023-04-24T02:54:21;17.00;17.00;14.25
77411;PMS7003;66484;49.968;19.140;2023-04-24T02:56:48;18.00;18.00;14.00
77411;PMS7003;66484;49.968;19.140;2023-04-24T02:59:15;17.50;17.00;14.00
77411;PMS7003;66484;49.968;19.140;2023-04-24T03:01:42;17.50;17.50;12.25
77411;PMS7003;66484;49.968;19.140;2023-04-24T03:04:09;16.75;14.25;13.00
77411;PMS7003;66484;49.968;19.140;2023-04-24T03:06:37;22.00;17.50;13.50
77411;PMS7003;66484;49.968;19.140;2023-04-24T03:09:05;19.75;19.25;13.50
77411;PMS7003;66484;49.968;19.140;2023-04-24T03:11:32;21.00;18.33;16.00
77411;PMS7003;66484;49.968;19.140;2023-04-24T03:14:00;23.75;21.75;16.75
77411;PMS7003;66484;49.968;19.140;2023-04-24T03:16:27;20.25;20.25;15.50
77411;PMS7003;66484;49.968;19.140;2023-04-24T03:18:54;20.50;19.75;14.75
77411;PMS7003;66484;49.968;19.140;2023-04-24T03:21:22;24.25;20.50;16.25
77411;PMS7003;66484;49.968;19.140;2023-04-24T03:23:49;26.25;25.25;18.00
77411;PMS7003;66484;49.968;19.140;2023-04-24T03:26:16;24.00;21.25;16.25
77411;PMS7003;66484;49.968;19.140;2023-04-24T03:28:43;30.50;27.00;19.25
77411;PMS7003;66484;49.968;19.140;2023-04-24T03:31:10;28.00;26.50;20.25
77411;PMS7003;66484;49.968;19.140;2023-04-24T03:33:38;43.25;34.00;23.25
77411;PMS7003;66484;49.968;19.140;2023-04-24T03:36:05;30.25;29.75;21.00
77411;PMS7003;66484;49.968;19.140;2023-04-24T03:38:33;30.25;28.75;20.50
77411;PMS7003;66484;49.968;19.140;2023-04-24T03:41:00;33.75;31.75;21.50
77411;PMS7003;66484;49.968;19.140;2023-04-24T03:43:27;39.75;34.25;21.75
77411;PMS7003;66484;49.968;19.140;2023-04-24T03:45:54;34.25;31.00;23.00
77411;PMS7003;66484;49.968;19.140;2023-04-24T03:48:23;29.50;29.50;21.00
77411;PMS7003;66484;49.968;19.140;2023-04-24T03:50:50;35.75;30.00;22.00
77411;PMS7003;66484;49.968;19.140;2023-04-24T03:53:17;30.75;28.25;20.00
77411;PMS7003;66484;49.968;19.140;2023-04-24T03:55:44;40.25;35.75;24.50
77411;PMS7003;66484;49.968;19.140;2023-04-24T03:58:12;41.75;31.25;21.00
77411;PMS7003;66484;49.968;19.140;2023-04-24T04:00:40;33.75;31.50;22.00
77411;PMS7003;66484;49.968;19.140;2023-04-24T04:03:08;30.00;25.75;19.25
77411;PMS7003;66484;49.968;19.140;2023-04-24T04:05:35;21.25;19.00;12.00
77411;PMS7003;66484;49.968;19.140;2023-04-24T04:08:09;31.25;27.75;20.50
77411;PMS7003;66484;49.968;19.140;2023-04-24T04:10:36;27.75;26.75;20.25
77411;PMS7003;66484;49.968;19.140;2023-04-24T04:13:03;26.25;25.50;19.25
77411;PMS7003;66484;49.968;19.140;2023-04-24T04:15:30;31.00;29.50;23.00
77411;PMS7003;66484;49.968;19.140;2023-04-24T04:17:58;24.00;24.00;18.75
77411;PMS7003;66484;49.968;19.140;2023-04-24T04:20:25;31.25;28.25;20.00
77411;PMS7003;66484;49.968;19.140;2023-04-24T04:22:52;32.25;28.50;21.00
77411;PMS7003;66484;49.968;19.140;2023-04-24T04:25:19;35.00;28.00;21.75
77411;PMS7003;66484;49.968;19.140;2023-04-24T04:27:46;30.25;27.75;22.00
77411;PMS7003;66484;49.968;19.140;2023-04-24T04:30:17;33.33;31.33;18.67
77411;PMS7003;66484;49.968;19.140;2023-04-24T04:32:45;25.33;23.00;18.67
77411;PMS7003;66484;49.968;19.140;2023-04-24T04:35:12;33.67;28.00;20.00
77411;PMS7003;66484;49.968;19.140;2023-04-24T04:37:40;26.00;24.67;19.67
77411;PMS7003;66484;49.968;19.140;2023-04-24T04:40:07;30.33;27.67;20.00
77411;PMS7003;66484;49.968;19.140;2023-04-24T04:42:37;30.33;26.67;20.67
77411;PMS7003;66484;49.968;19.140;2023-04-24T04:45:09;22.00;22.00;17.67
77411;PMS7003;66484;49.968;19.140;2023-04-24T04:47:38;27.67;25.00;19.00
77411;PMS7003;66484;49.968;19.140;2023-04-24T04:50:06;26.33;23.67;17.33
77411;PMS7003;66484;49.968;19.140;2023-04-24T04:52:34;23.00;21.00;16.00
77411;PMS7003;66484;49.968;19.140;2023-04-24T04:55:01;30.00;28.67;20.67
77411;PMS7003;66484;49.968;19.140;2023-04-24T04:57:28;23.33;23.33;17.33
77411;PMS7003;66484;49.968;19.140;2023-04-24T04:59:57;23.00;23.00;18.00
77411;PMS7003;66484;49.968;19.140;2023-04-24T05:02:24;27.67;22.00;17.00
77411;PMS7003;66484;49.968;19.140;2023-04-24T05:04:51;28.33;25.33;18.00
77411;PMS7003;66484;49.968;19.140;2023-04-24T05:07:19;28.33;24.33;18.00
77411;PMS7003;66484;49.968;19.140;2023-04-24T05:09:46;23.00;23.00;17.00
77411;PMS7003;66484;49.968;19.140;2023-04-24T05:12:13;24.00;22.67;17.67
77411;PMS7003;66484;49.968;19.140;2023-04-24T05:14:40;24.33;18.00;12.00
77411;PMS7003;66484;49.968;19.140;2023-04-24T05:17:07;23.67;19.67;14.00
77411;PMS7003;66484;49.968;19.140;2023-04-24T05:19:35;24.33;23.33;15.00
77411;PMS7003;66484;49.968;19.140;2023-04-24T05:22:04;22.00;20.67;15.00
77411;PMS7003;66484;49.968;19.140;2023-04-24T05:24:33;22.00;19.33;14.33
77411;PMS7003;66484;49.968;19.140;2023-04-24T05:27:04;22.67;21.00;14.00
77411;PMS7003;66484;49.968;19.140;2023-04-24T05:29:31;17.00;16.00;11.67
77411;PMS7003;66484;49.968;19.140;2023-04-24T05:32:00;21.33;21.33;15.67
77411;PMS7003;66484;49.968;19.140;2023-04-24T05:34:27;16.33;15.33;13.00
77411;PMS7003;66484;49.968;19.140;2023-04-24T05:36:54;18.67;17.67;16.00
77411;PMS7003;66484;49.968;19.140;2023-04-24T05:39:21;20.67;20.67;15.33
77411;PMS7003;66484;49.968;19.140;2023-04-24T05:41:49;18.00;18.00;13.00
77411;PMS7003;66484;49.968;19.140;2023-04-24T05:44:16;16.33;15.00;12.00
77411;PMS7003;66484;49.968;19.140;2023-04-24T05:46:43;19.33;17.33;14.00
77411;PMS7003;66484;49.968;19.140;2023-04-24T05:49:10;21.67;19.00;13.33
77411;PMS7003;66484;49.968;19.140;2023-04-24T05:51:38;24.67;20.67;15.67
77411;PMS7003;66484;49.968;19.140;2023-04-24T05:54:06;24.00;22.00;14.67
77411;PMS7003;66484;49.968;19.140;2023-04-24T05:56:33;19.33;19.33;15.33
77411;PMS7003;66484;49.968;19.140;2023-04-24T05:59:00;23.00;21.67;16.33
77411;PMS7003;66484;49.968;19.140;2023-04-24T06:01:28;27.00;20.67;13.33
77411;PMS7003;66484;49.968;19.140;2023-04-24T06:03:55;21.67;20.67;16.33
77411;PMS7003;66484;49.968;19.140;2023-04-24T06:06:23;19.00;19.00;15.67
77411;PMS7003;66484;49.968;19.140;2023-04-24T06:08:50;17.67;16.67;14.00
77411;PMS7003;66484;49.968;19.140;2023-04-24T06:11:18;21.67;21.00;14.67
77411;PMS7003;66484;49.968;19.140;2023-04-24T06:13:45;18.00;15.33;13.33
77411;PMS7003;66484;49.968;19.140;2023-04-24T06:16:12;17.33;16.33;13.00
77411;PMS7003;66484;49.968;19.140;2023-04-24T06:18:39;18.00;18.00;14.33
77411;PMS7003;66484;49.968;19.140;2023-04-24T06:21:07;21.33;18.33;14.67
77411;PMS7003;66484;49.968;19.140;2023-04-24T06:23:34;24.33;20.00;16.33
77411;PMS7003;66484;49.968;19.140;2023-04-24T06:26:01;22.67;19.33;15.00
77411;PMS7003;66484;49.968;19.140;2023-04-24T06:28:29;18.33;18.00;14.67
77411;PMS7003;66484;49.968;19.140;2023-04-24T06:30:56;12.67;9.67;7.67
77411;PMS7003;66484;49.968;19.140;2023-04-24T06:33:23;22.67;20.00;14.67
77411;PMS7003;66484;49.968;19.140;2023-04-24T06:35:50;17.00;16.33;12.33
77411;PMS7003;66484;49.968;19.140;2023-04-24T06:38:18;23.33;22.67;16.33
77411;PMS7003;66484;49.968;19.140;2023-04-24T06:40:45;16.33;16.33;14.33
77411;PMS7003;66484;49.968;19.140;2023-04-24T06:43:12;22.00;20.33;15.00
77411;PMS7003;66484;49.968;19.140;2023-04-24T06:45:39;19.67;18.33;13.67
77411;PMS7003;66484;49.968;19.140;2023-04-24T06:48:07;24.00;21.00;16.00
77411;PMS7003;66484;49.968;19.140;2023-04-24T06:50:34;21.00;19.00;15.67
77411;PMS7003;66484;49.968;19.140;2023-04-24T06:53:02;18.00;18.00;14.33
77411;PMS7003;66484;49.968;19.140;2023-04-24T06:55:29;22.00;20.00;15.67
77411;PMS7003;66484;49.968;19.140;2023-04-24T06:57:56;20.33;20.33;14.67
77411;PMS7003;66484;49.968;19.140;2023-04-24T07:00:23;14.67;14.33;12.33
77411;PMS7003;66484;49.968;19.140;2023-04-24T07:02:50;17.67;17.00;13.00
77411;PMS7003;66484;49.968;19.140;2023-04-24T07:05:18;19.33;16.33;13.00
77411;PMS7003;66484;49.968;19.140;2023-04-24T07:07:49;19.67;16.33;12.33
77411;PMS7003;66484;49.968;19.140;2023-04-24T07:10:18;16.50;14.50;11.75
77411;PMS7003;66484;49.968;19.140;2023-04-24T07:12:45;14.50;14.50;10.75
77411;PMS7003;66484;49.968;19.140;2023-04-24T07:15:13;16.75;15.75;12.25
77411;PMS7003;66484;49.968;19.140;2023-04-24T07:17:40;18.25;17.00;11.00
77411;PMS7003;66484;49.968;19.140;2023-04-24T07:20:10;19.00;17.50;11.00
77411;PMS7003;66484;49.968;19.140;2023-04-24T07:22:38;17.75;17.00;13.00
77411;PMS7003;66484;49.968;19.140;2023-04-24T07:25:06;14.50;13.75;10.00
77411;PMS7003;66484;49.968;19.140;2023-04-24T07:27:34;17.00;12.50;11.00
77411;PMS7003;66484;49.968;19.140;2023-04-24T07:30:03;12.00;12.00;10.50
77411;PMS7003;66484;49.968;19.140;2023-04-24T07:32:30;15.50;13.25;10.75
77411;PMS7003;66484;49.968;19.140;2023-04-24T07:34:58;14.50;14.50;12.25
77411;PMS7003;66484;49.968;19.140;2023-04-24T07:37:25;12.00;10.50;8.25
77411;PMS7003;66484;49.968;19.140;2023-04-24T07:39:52;11.00;11.00;9.50
77411;PMS7003;66484;49.968;19.140;2023-04-24T07:42:20;11.00;11.00;9.75
77411;PMS7003;66484;49.968;19.140;2023-04-24T07:44:47;5.00;5.00;4.00
77411;PMS7003;66484;49.968;19.140;2023-04-24T07:47:14;15.00;14.25;12.00
77411;PMS7003;66484;49.968;19.140;2023-04-24T07:49:42;12.75;11.75;9.75
77411;PMS7003;66484;49.968;19.140;2023-04-24T07:52:10;14.25;14.25;12.50
77411;PMS7003;66484;49.968;19.140;2023-04-24T07:54:37;14.00;13.25;11.00
77411;PMS7003;66484;49.968;19.140;2023-04-24T07:57:04;11.75;11.75;10.00
77411;PMS7003;66484;49.968;19.140;2023-04-24T07:59:33;11.00;10.50;9.00
77411;PMS7003;66484;49.968;19.140;2023-04-24T08:02:01;10.75;10.75;9.00
77411;PMS7003;66484;49.968;19.140;2023-04-24T08:04:28;12.50;12.50;10.50
77411;PMS7003;66484;49.968;19.140;2023-04-24T08:06:55;13.25;13.25;10.00
77411;PMS7003;66484;49.968;19.140;2023-04-24T08:09:23;13.25;13.00;10.00
77411;PMS7003;66484;49.968;19.140;2023-04-24T08:11:52;15.50;15.50;12.50
77411;PMS7003;66484;49.968;19.140;2023-04-24T08:14:20;15.00;15.00;11.75
77411;PMS7003;66484;49.968;19.140;2023-04-24T08:16:47;16.00;14.25;11.00
77411;PMS7003;66484;49.968;19.140;2023-04-24T08:19:15;13.75;13.75;11.75
77411;PMS7003;66484;49.968;19.140;2023-04-24T08:21:42;9.25;9.25;8.25
77411;PMS7003;66484;49.968;19.140;2023-04-24T08:24:09;11.00;11.00;9.75
77411;PMS7003;66484;49.968;19.140;2023-04-24T08:26:36;14.25;14.25;11.50
77411;PMS7003;66484;49.968;19.140;2023-04-24T08:29:04;16.00;14.50;11.50
77411;PMS7003;66484;49.968;19.140;2023-04-24T08:31:31;12.00;12.00;10.00
77411;PMS7003;66484;49.968;19.140;2023-04-24T08:34:00;8.50;8.00;5.00
77411;PMS7003;66484;49.968;19.140;2023-04-24T08:36:27;11.00;10.50;8.50
77411;PMS7003;66484;49.968;19.140;2023-04-24T08:39:12;11.25;11.25;10.00
77411;PMS7003;66484;49.968;19.140;2023-04-24T08:41:41;13.25;12.00;10.00
77411;PMS7003;66484;49.968;19.140;2023-04-24T08:44:10;10.50;10.25;8.75
77411;PMS7003;66484;49.968;19.140;2023-04-24T08:46:37;14.00;11.75;10.25
77411;PMS7003;66484;49.968;19.140;2023-04-24T08:49:05;13.25;13.25;9.75
77411;PMS7003;66484;49.968;19.140;2023-04-24T08:51:32;13.50;13.50;10.50
77411;PMS7003;66484;49.968;19.140;2023-04-24T08:54:00;10.75;10.75;9.50
77411;PMS7003;66484;49.968;19.140;2023-04-24T08:56:27;13.50;11.50;9.00
77411;PMS7003;66484;49.968;19.140;2023-04-24T08:58:56;12.25;10.75;9.25
77411;PMS7003;66484;49.968;19.140;2023-04-24T09:01:23;10.75;10.75;8.75
77411;PMS7003;66484;49.968;19.140;2023-04-24T09:03:52;12.75;11.75;10.75
77411;PMS7003;66484;49.968;19.140;2023-04-24T09:06:20;11.50;11.50;9.75
77411;PMS7003;66484;49.968;19.140;2023-04-24T09:08:49;12.25;12.00;10.00
77411;PMS7003;66484;49.968;19.140;2023-04-24T09:11:17;10.00;10.00;8.75
77411;PMS7003;66484;49.968;19.140;2023-04-24T09:13:45;11.00;9.50;7.75
77411;PMS7003;66484;49.968;19.140;2023-04-24T09:16:12;11.75;10.75;8.00
77411;PMS7003;66484;49.968;19.140;2023-04-24T09:18:41;11.75;9.00;8.00
77411;PMS7003;66484;49.968;19.140;2023-04-24T09:21:09;11.00;10.00;8.50
77411;PMS7003;66484;49.968;19.140;2023-04-24T09:23:37;10.00;10.00;7.00
77411;PMS7003;66484;49.968;19.140;2023-04-24T09:26:04;9.50;9.50;9.00
77411;PMS7003;66484;49.968;19.140;2023-04-24T09:28:32;15.00;12.50;9.25
77411;PMS7003;66484;49.968;19.140;2023-04-24T09:31:06;12.75;12.75;9.25
77411;PMS7003;66484;49.968;19.140;2023-04-24T09:33:35;10.00;9.25;8.00
77411;PMS7003;66484;49.968;19.140;2023-04-24T09:36:03;10.50;9.25;7.00
77411;PMS7003;66484;49.968;19.140;2023-04-24T09:38:34;15.50;13.00;10.00
77411;PMS7003;66484;49.968;19.140;2023-04-24T09:41:04;11.75;11.75;8.50
77411;PMS7003;66484;49.968;19.140;2023-04-24T09:43:32;10.75;10.75;8.50
77411;PMS7003;66484;49.968;19.140;2023-04-24T09:46:04;18.25;14.25;11.50
77411;PMS7003;66484;49.968;19.140;2023-04-24T09:48:33;17.00;14.00;10.00
77411;PMS7003;66484;49.968;19.140;2023-04-24T09:51:01;14.00;14.00;10.00
77411;PMS7003;66484;49.968;19.140;2023-04-24T09:53:30;11.00;9.25;7.25
77411;PMS7003;66484;49.968;19.140;2023-04-24T09:56:10;13.25;13.25;10.25
77411;PMS7003;66484;49.968;19.140;2023-04-24T09:58:39;15.50;15.50;11.75
77411;PMS7003;66484;49.968;19.140;2023-04-24T10:01:06;16.00;12.00;9.75
77411;PMS7003;66484;49.968;19.140;2023-04-24T10:03:34;12.25;11.00;9.25
77411;PMS7003;66484;49.968;19.140;2023-04-24T10:06:01;14.75;12.00;9.75
77411;PMS7003;66484;49.968;19.140;2023-04-24T10:08:36;18.75;16.25;12.75
77411;PMS7003;66484;49.968;19.140;2023-04-24T10:11:04;19.25;16.75;12.50
77411;PMS7003;66484;49.968;19.140;2023-04-24T10:13:31;12.50;12.50;10.25
77411;PMS7003;66484;49.968;19.140;2023-04-24T10:15:59;12.75;11.75;10.25
77411;PMS7003;66484;49.968;19.140;2023-04-24T10:18:27;10.50;10.50;9.00
77411;PMS7003;66484;49.968;19.140;2023-04-24T10:20:55;11.50;11.50;9.75
77411;PMS7003;66484;49.968;19.140;2023-04-24T10:23:24;13.75;13.75;10.50
77411;PMS7003;66484;49.968;19.140;2023-04-24T10:25:51;12.75;11.50;10.50
77411;PMS7003;66484;49.968;19.140;2023-04-24T10:28:19;16.50;14.50;11.25
77411;PMS7003;66484;49.968;19.140;2023-04-24T10:30:47;15.25;11.00;10.00
77411;PMS7003;66484;49.968;19.140;2023-04-24T10:33:15;13.25;12.25;9.00
77411;PMS7003;66484;49.968;19.140;2023-04-24T10:35:44;14.50;14.50;12.75
77411;PMS7003;66484;49.968;19.140;2023-04-24T10:38:15;12.75;12.75;10.50
77411;PMS7003;66484;49.968;19.140;2023-04-24T10:40:44;14.25;12.50;10.00
77411;PMS7003;66484;49.968;19.140;2023-04-24T10:43:14;14.75;14.75;11.75
77411;PMS7003;66484;49.968;19.140;2023-04-24T10:46:05;14.75;11.25;9.25
77411;PMS7003;66484;49.968;19.140;2023-04-24T10:48:33;15.00;13.75;11.25
77411;PMS7003;66484;49.968;19.140;2023-04-24T10:51:00;13.75;13.75;10.50
77411;PMS7003;66484;49.968;19.140;2023-04-24T10:53:29;13.25;13.25;10.25
77411;PMS7003;66484;49.968;19.140;2023-04-24T10:55:58;13.75;12.00;9.50
77411;PMS7003;66484;49.968;19.140;2023-04-24T10:58:40;14.50;11.25;8.25
77411;PMS7003;66484;49.968;19.140;2023-04-24T11:03:56;15.00;13.50;8.75
77411;PMS7003;66484;49.968;19.140;2023-04-24T11:06:43;13.50;12.25;10.50
77411;PMS7003;66484;49.968;19.140;2023-04-24T11:09:10;13.00;10.25;8.75
77411;PMS7003;66484;49.968;19.140;2023-04-24T11:11:44;17.25;13.75;10.75
77411;PMS7003;66484;49.968;19.140;2023-04-24T11:14:15;17.00;15.25;10.75
77411;PMS7003;66484;49.968;19.140;2023-04-24T11:19:28;15.25;15.25;12.50
77411;PMS7003;66484;49.968;19.140;2023-04-24T11:24:29;14.75;14.75;12.00
77411;PMS7003;66484;49.968;19.140;2023-04-24T11:34:56;16.75;16.00;11.00
77411;PMS7003;66484;49.968;19.140;2023-04-24T11:37:26;12.00;11.00;8.75
77411;PMS7003;66484;49.968;19.140;2023-04-24T11:39:56;15.25;15.25;12.00
77411;PMS7003;66484;49.968;19.140;2023-04-24T11:42:25;10.00;8.75;5.25
77411;PMS7003;66484;49.968;19.140;2023-04-24T11:44:53;11.00;11.00;9.00
77411;PMS7003;66484;49.968;19.140;2023-04-24T11:47:31;11.75;11.75;9.75
77411;PMS7003;66484;49.968;19.140;2023-04-24T11:50:01;11.25;11.00;9.00
77411;PMS7003;66484;49.968;19.140;2023-04-24T11:52:29;11.25;11.25;9.25
77411;PMS7003;66484;49.968;19.140;2023-04-24T11:54:57;7.00;7.00;6.00
77411;PMS7003;66484;49.968;19.140;2023-04-24T11:57:25;14.25;14.00;11.00
77411;PMS7003;66484;49.968;19.140;2023-04-24T12:00:01;13.25;12.75;11.00
77411;PMS7003;66484;49.968;19.140;2023-04-24T12:02:31;13.25;13.25;11.00
77411;PMS7003;66484;49.968;19.140;2023-04-24T12:04:58;15.00;15.00;11.00
77411;PMS7003;66484;49.968;19.140;2023-04-24T12:07:26;14.00;13.75;11.25
77411;PMS7003;66484;49.968;19.140;2023-04-24T12:09:57;14.25;13.75;11.75
77411;PMS7003;66484;49.968;19.140;2023-04-24T12:12:27;16.67;15.67;12.67
77411;PMS7003;66484;49.968;19.140;2023-04-24T12:14:55;20.75;18.25;14.00
77411;PMS7003;66484;49.968;19.140;2023-04-24T12:17:25;19.33;16.67;11.67
77411;PMS7003;66484;49.968;19.140;2023-04-24T12:20:02;13.50;12.00;10.00
77411;PMS7003;66484;49.968;19.140;2023-04-24T12:25:21;14.67;13.33;10.00
77411;PMS7003;66484;49.968;19.140;2023-04-24T12:27:54;11.67;10.67;9.00
77411;PMS7003;66484;49.968;19.140;2023-04-24T12:30:27;16.67;15.00;13.00
77411;PMS7003;66484;49.968;19.140;2023-04-24T12:32:57;10.33;8.33;5.67
77411;PMS7003;66484;49.968;19.140;2023-04-24T12:35:25;18.67;17.00;13.33
77411;PMS7003;66484;49.968;19.140;2023-04-24T12:37:55;13.00;13.00;11.00
77411;PMS7003;66484;49.968;19.140;2023-04-24T12:40:24;21.33;15.33;12.33
77411;PMS7003;66484;49.968;19.140;2023-04-24T12:42:52;16.67;16.67;13.00
77411;PMS7003;66484;49.968;19.140;2023-04-24T12:45:21;17.00;16.00;13.67
77411;PMS7003;66484;49.968;19.140;2023-04-24T12:47:51;21.33;17.67;15.33
77411;PMS7003;66484;49.968;19.140;2023-04-24T12:50:18;19.00;17.67;13.67
77411;PMS7003;66484;49.968;19.140;2023-04-24T12:52:45;15.67;14.67;10.67
77411;PMS7003;66484;49.968;19.140;2023-04-24T12:55:12;16.00;13.00;11.33
77411;PMS7003;66484;49.968;19.140;2023-04-24T12:57:40;13.33;13.00;11.67
77411;PMS7003;66484;49.968;19.140;2023-04-24T13:00:08;12.00;12.00;11.00
77411;PMS7003;66484;49.968;19.140;2023-04-24T13:02:36;16.00;13.67;10.67
77411;PMS7003;66484;49.968;19.140;2023-04-24T13:05:04;17.67;17.67;13.67
77411;PMS7003;66484;49.968;19.140;2023-04-24T13:07:33;14.67;13.00;10.00
77411;PMS7003;66484;49.968;19.140;2023-04-24T13:10:00;16.33;16.33;12.33
77411;PMS7003;66484;49.968;19.140;2023-04-24T13:12:28;9.67;9.33;7.67
77411;PMS7003;66484;49.968;19.140;2023-04-24T13:14:55;14.33;14.33;10.00
77411;PMS7003;66484;49.968;19.140;2023-04-24T13:17:23;12.33;12.33;10.00
77411;PMS7003;66484;49.968;19.140;2023-04-24T13:19:50;12.67;12.00;11.00
77411;PMS7003;66484;49.968;19.140;2023-04-24T13:22:18;9.00;9.00;8.00
77411;PMS7003;66484;49.968;19.140;2023-04-24T13:24:45;11.33;11.33;9.33
77411;PMS7003;66484;49.968;19.140;2023-04-24T13:27:15;15.67;14.00;11.67
77411;PMS7003;66484;49.968;19.140;2023-04-24T13:29:43;11.33;11.00;10.00
77411;PMS7003;66484;49.968;19.140;2023-04-24T13:32:11;13.33;12.00;9.67
77411;PMS7003;66484;49.968;19.140;2023-04-24T13:34:38;10.67;9.67;8.67
77411;PMS7003;66484;49.968;19.140;2023-04-24T13:37:06;9.33;9.33;8.33
77411;PMS7003;66484;49.968;19.140;2023-04-24T13:39:35;13.67;11.33;9.67
77411;PMS7003;66484;49.968;19.140;2023-04-24T13:42:03;10.00;8.67;6.67
77411;PMS7003;66484;49.968;19.140;2023-04-24T13:44:30;6.67;6.67;6.00
77411;PMS7003;66484;49.968;19.140;2023-04-24T13:46:58;5.33;5.33;4.33
77411;PMS7003;66484;49.968;19.140;2023-04-24T13:49:26;6.33;4.33;3.00
77411;PMS7003;66484;49.968;19.140;2023-04-24T13:51:54;4.00;4.00;3.00
77411;PMS7003;66484;49.968;19.140;2023-04-24T13:54:22;5.00;5.00;4.00
77411;PMS7003;66484;49.968;19.140;2023-04-24T13:56:53;3.00;3.00;3.00
77411;PMS7003;66484;49.968;19.140;2023-04-24T13:59:20;6.00;5.00;3.00
77411;PMS7003;66484;49.968;19.140;2023-04-24T14:01:50;6.00;4.67;3.00
77411;PMS7003;66484;49.968;19.140;2023-04-24T14:04:18;4.33;4.33;4.33